sensor_id;sensor_type;location;lat;lon;timestamp;P1;durP1;ratioP1;P2;durP2;ratioP2
10303;SDS011;5197;48.152;8.590;2023-05-07T00:00:01;3.43;;;3.13;;
10303;SDS011;5197;48.152;8.590;2023-05-07T00:02:30;4.33;;;3.03;;
10303;SDS011;5197;48.152;8.590;2023-05-07T00:04:57;4.50;;;2.97;;
10303;SDS011;5197;48.152;8.590;2023-05-07T00:07:24;4.40;;;3.00;;
10303;SDS011;5197;48.152;8.590;2023-05-07T00:09:51;5.70;;;3.37;;
10303;SDS011;5197;48.152;8.590;2023-05-07T00:12:18;3.33;;;2.97;;
10303;SDS011;5197;48.152;8.590;2023-05-07T00:14:45;4.07;;;3.13;;
10303;SDS011;5197;48.152;8.590;2023-05-07T00:17:12;4.53;;;2.80;;
10303;SDS011;5197;48.152;8.590;2023-05-07T00:19:39;5.40;;;3.20;;
10303;SDS011;5197;48.152;8.590;2023-05-07T00:22:06;3.10;;;2.80;;
10303;SDS011;5197;48.152;8.590;2023-05-07T00:24:34;3.33;;;3.03;;
10303;SDS011;5197;48.152;8.590;2023-05-07T00:27:01;5.53;;;3.73;;
10303;SDS011;5197;48.152;8.590;2023-05-07T00:29:28;3.40;;;3.00;;
10303;SDS011;5197;48.152;8.590;2023-05-07T00:31:55;3.57;;;3.27;;
10303;SDS011;5197;48.152;8.590;2023-05-07T00:34:22;4.30;;;3.30;;
10303;SDS011;5197;48.152;8.590;2023-05-07T00:36:49;3.40;;;3.07;;
10303;SDS011;5197;48.152;8.590;2023-05-07T00:39:16;4.43;;;3.07;;
10303;SDS011;5197;48.152;8.590;2023-05-07T00:41:43;5.40;;;3.10;;
10303;SDS011;5197;48.152;8.590;2023-05-07T00:44:10;3.33;;;3.03;;
10303;SDS011;5197;48.152;8.590;2023-05-07T00:46:37;3.80;;;3.27;;
10303;SDS011;5197;48.152;8.590;2023-05-07T00:49:04;3.37;;;3.07;;
10303;SDS011;5197;48.152;8.590;2023-05-07T00:51:32;5.87;;;3.50;;
10303;SDS011;5197;48.152;8.590;2023-05-07T00:54:00;3.80;;;3.50;;
10303;SDS011;5197;48.152;8.590;2023-05-07T00:56:29;3.63;;;3.43;;
10303;SDS011;5197;48.152;8.590;2023-05-07T00:58:57;4.27;;;3.60;;
10303;SDS011;5197;48.152;8.590;2023-05-07T01:01:24;4.67;;;3.30;;
10303;SDS011;5197;48.152;8.590;2023-05-07T01:03:52;3.93;;;3.60;;
10303;SDS011;5197;48.152;8.590;2023-05-07T01:06:20;5.80;;;3.60;;
10303;SDS011;5197;48.152;8.590;2023-05-07T01:08:50;3.90;;;3.60;;
10303;SDS011;5197;48.152;8.590;2023-05-07T01:11:19;5.47;;;3.53;;
10303;SDS011;5197;48.152;8.590;2023-05-07T01:13:48;5.57;;;3.37;;
10303;SDS011;5197;48.152;8.590;2023-05-07T01:16:16;5.70;;;3.43;;
10303;SDS011;5197;48.152;8.590;2023-05-07T01:18:43;3.93;;;3.30;;
10303;SDS011;5197;48.152;8.590;2023-05-07T01:21:12;5.77;;;3.70;;
10303;SDS011;5197;48.152;8.590;2023-05-07T01:23:42;4.00;;;3.43;;
10303;SDS011;5197;48.152;8.590;2023-05-07T01:26:09;5.97;;;3.37;;
10303;SDS011;5197;48.152;8.590;2023-05-07T01:28:36;6.80;;;3.33;;
10303;SDS011;5197;48.152;8.590;2023-05-07T01:31:03;3.57;;;3.37;;
10303;SDS011;5197;48.152;8.590;2023-05-07T01:33:33;3.90;;;3.57;;
10303;SDS011;5197;48.152;8.590;2023-05-07T01:36:02;4.27;;;3.67;;
10303;SDS011;5197;48.152;8.590;2023-05-07T01:38:32;4.67;;;3.40;;
10303;SDS011;5197;48.152;8.590;2023-05-07T01:41:00;3.63;;;3.43;;
10303;SDS011;5197;48.152;8.590;2023-05-07T01:43:28;4.17;;;3.73;;
10303;SDS011;5197;48.152;8.590;2023-05-07T01:45:57;4.73;;;3.80;;
10303;SDS011;5197;48.152;8.590;2023-05-07T01:48:25;3.70;;;3.40;;
10303;SDS011;5197;48.152;8.590;2023-05-07T01:50:52;5.30;;;3.50;;
10303;SDS011;5197;48.152;8.590;2023-05-07T01:53:20;3.90;;;3.20;;
10303;SDS011;5197;48.152;8.590;2023-05-07T01:55:47;4.37;;;3.23;;
10303;SDS011;5197;48.152;8.590;2023-05-07T01:58:14;8.43;;;3.67;;
10303;SDS011;5197;48.152;8.590;2023-05-07T02:00:41;5.03;;;3.47;;
10303;SDS011;5197;48.152;8.590;2023-05-07T02:03:08;4.80;;;3.63;;
10303;SDS011;5197;48.152;8.590;2023-05-07T02:05:36;4.90;;;3.73;;
10303;SDS011;5197;48.152;8.590;2023-05-07T02:08:03;5.10;;;3.93;;
10303;SDS011;5197;48.152;8.590;2023-05-07T02:10:30;3.83;;;3.40;;
10303;SDS011;5197;48.152;8.590;2023-05-07T02:12:57;5.83;;;3.60;;
10303;SDS011;5197;48.152;8.590;2023-05-07T02:15:24;3.63;;;3.30;;
10303;SDS011;5197;48.152;8.590;2023-05-07T02:17:57;3.90;;;3.27;;
10303;SDS011;5197;48.152;8.590;2023-05-07T02:20:32;4.83;;;3.33;;
10303;SDS011;5197;48.152;8.590;2023-05-07T02:22:59;3.80;;;3.33;;
10303;SDS011;5197;48.152;8.590;2023-05-07T02:25:27;4.70;;;3.60;;
10303;SDS011;5197;48.152;8.590;2023-05-07T02:27:54;5.63;;;3.30;;
10303;SDS011;5197;48.152;8.590;2023-05-07T02:30:21;6.37;;;3.47;;
10303;SDS011;5197;48.152;8.590;2023-05-07T02:32:48;3.60;;;3.30;;
10303;SDS011;5197;48.152;8.590;2023-05-07T02:35:15;4.03;;;3.33;;
10303;SDS011;5197;48.152;8.590;2023-05-07T02:37:42;6.03;;;3.37;;
10303;SDS011;5197;48.152;8.590;2023-05-07T02:40:09;4.13;;;3.40;;
10303;SDS011;5197;48.152;8.590;2023-05-07T02:42:37;3.40;;;3.10;;
10303;SDS011;5197;48.152;8.590;2023-05-07T02:45:05;3.47;;;3.13;;
10303;SDS011;5197;48.152;8.590;2023-05-07T02:47:32;3.43;;;3.10;;
10303;SDS011;5197;48.152;8.590;2023-05-07T02:49:59;4.70;;;3.43;;
10303;SDS011;5197;48.152;8.590;2023-05-07T02:52:26;4.40;;;3.43;;
10303;SDS011;5197;48.152;8.590;2023-05-07T02:54:53;3.47;;;3.17;;
10303;SDS011;5197;48.152;8.590;2023-05-07T02:57:20;3.33;;;3.10;;
10303;SDS011;5197;48.152;8.590;2023-05-07T02:59:47;6.13;;;3.40;;
10303;SDS011;5197;48.152;8.590;2023-05-07T03:02:14;3.70;;;3.40;;
10303;SDS011;5197;48.152;8.590;2023-05-07T03:04:41;5.13;;;3.20;;
10303;SDS011;5197;48.152;8.590;2023-05-07T03:07:08;5.93;;;3.70;;
10303;SDS011;5197;48.152;8.590;2023-05-07T03:09:35;3.93;;;3.43;;
10303;SDS011;5197;48.152;8.590;2023-05-07T03:12:01;6.47;;;3.27;;
10303;SDS011;5197;48.152;8.590;2023-05-07T03:14:29;7.57;;;3.73;;
10303;SDS011;5197;48.152;8.590;2023-05-07T03:16:56;4.50;;;3.60;;
10303;SDS011;5197;48.152;8.590;2023-05-07T03:19:23;3.60;;;3.30;;
10303;SDS011;5197;48.152;8.590;2023-05-07T03:21:50;7.20;;;3.80;;
10303;SDS011;5197;48.152;8.590;2023-05-07T03:24:17;3.90;;;3.30;;
10303;SDS011;5197;48.152;8.590;2023-05-07T03:26:44;7.03;;;3.30;;
10303;SDS011;5197;48.152;8.590;2023-05-07T03:29:11;4.57;;;3.47;;
10303;SDS011;5197;48.152;8.590;2023-05-07T03:31:38;4.43;;;3.40;;
10303;SDS011;5197;48.152;8.590;2023-05-07T03:34:05;2.93;;;2.73;;
10303;SDS011;5197;48.152;8.590;2023-05-07T03:36:32;9.87;;;3.37;;
10303;SDS011;5197;48.152;8.590;2023-05-07T03:38:59;3.50;;;3.20;;
10303;SDS011;5197;48.152;8.590;2023-05-07T03:41:26;6.20;;;3.23;;
10303;SDS011;5197;48.152;8.590;2023-05-07T03:43:53;3.30;;;3.10;;
10303;SDS011;5197;48.152;8.590;2023-05-07T03:46:20;3.40;;;3.10;;
10303;SDS011;5197;48.152;8.590;2023-05-07T03:48:47;5.63;;;3.13;;
10303;SDS011;5197;48.152;8.590;2023-05-07T03:51:14;3.93;;;3.30;;
10303;SDS011;5197;48.152;8.590;2023-05-07T03:53:41;4.30;;;2.83;;
10303;SDS011;5197;48.152;8.590;2023-05-07T03:56:08;3.93;;;3.53;;
10303;SDS011;5197;48.152;8.590;2023-05-07T03:58:35;3.83;;;3.17;;
10303;SDS011;5197;48.152;8.590;2023-05-07T04:01:02;3.60;;;2.90;;
10303;SDS011;5197;48.152;8.590;2023-05-07T04:03:30;5.47;;;3.87;;
10303;SDS011;5197;48.152;8.590;2023-05-07T04:05:57;3.90;;;3.50;;
10303;SDS011;5197;48.152;8.590;2023-05-07T04:08:24;3.90;;;3.60;;
10303;SDS011;5197;48.152;8.590;2023-05-07T04:10:55;5.67;;;3.57;;
10303;SDS011;5197;48.152;8.590;2023-05-07T04:13:26;3.23;;;3.03;;
10303;SDS011;5197;48.152;8.590;2023-05-07T04:15:54;4.43;;;3.40;;
10303;SDS011;5197;48.152;8.590;2023-05-07T04:18:22;3.63;;;3.33;;
10303;SDS011;5197;48.152;8.590;2023-05-07T04:20:49;4.33;;;3.20;;
10303;SDS011;5197;48.152;8.590;2023-05-07T04:23:16;4.23;;;3.30;;
10303;SDS011;5197;48.152;8.590;2023-05-07T04:25:43;7.80;;;3.27;;
10303;SDS011;5197;48.152;8.590;2023-05-07T04:28:10;5.77;;;3.53;;
10303;SDS011;5197;48.152;8.590;2023-05-07T04:30:38;4.07;;;3.73;;
10303;SDS011;5197;48.152;8.590;2023-05-07T04:33:05;4.77;;;4.10;;
10303;SDS011;5197;48.152;8.590;2023-05-07T04:35:33;4.33;;;3.93;;
10303;SDS011;5197;48.152;8.590;2023-05-07T04:38:01;4.90;;;4.17;;
10303;SDS011;5197;48.152;8.590;2023-05-07T04:40:28;3.67;;;3.37;;
10303;SDS011;5197;48.152;8.590;2023-05-07T04:42:55;4.43;;;4.03;;
10303;SDS011;5197;48.152;8.590;2023-05-07T04:45:26;6.60;;;4.00;;
10303;SDS011;5197;48.152;8.590;2023-05-07T04:47:53;4.83;;;3.73;;
10303;SDS011;5197;48.152;8.590;2023-05-07T04:50:20;5.13;;;4.10;;
10303;SDS011;5197;48.152;8.590;2023-05-07T04:52:49;4.67;;;4.10;;
10303;SDS011;5197;48.152;8.590;2023-05-07T04:55:17;4.30;;;4.00;;
10303;SDS011;5197;48.152;8.590;2023-05-07T04:57:44;6.60;;;3.90;;
10303;SDS011;5197;48.152;8.590;2023-05-07T05:00:11;4.77;;;4.30;;
10303;SDS011;5197;48.152;8.590;2023-05-07T05:02:41;4.20;;;3.80;;
10303;SDS011;5197;48.152;8.590;2023-05-07T05:05:08;4.20;;;3.80;;
10303;SDS011;5197;48.152;8.590;2023-05-07T05:07:35;4.87;;;4.10;;
10303;SDS011;5197;48.152;8.590;2023-05-07T05:10:02;4.13;;;3.57;;
10303;SDS011;5197;48.152;8.590;2023-05-07T05:12:31;3.80;;;3.40;;
10303;SDS011;5197;48.152;8.590;2023-05-07T05:14:58;4.00;;;3.50;;
10303;SDS011;5197;48.152;8.590;2023-05-07T05:17:25;5.17;;;3.13;;
10303;SDS011;5197;48.152;8.590;2023-05-07T05:19:52;3.87;;;3.57;;
10303;SDS011;5197;48.152;8.590;2023-05-07T05:22:19;4.27;;;3.40;;
10303;SDS011;5197;48.152;8.590;2023-05-07T05:24:47;4.53;;;3.43;;
10303;SDS011;5197;48.152;8.590;2023-05-07T05:27:14;3.83;;;3.40;;
10303;SDS011;5197;48.152;8.590;2023-05-07T05:29:41;4.00;;;3.70;;
10303;SDS011;5197;48.152;8.590;2023-05-07T05:32:08;4.70;;;3.53;;
10303;SDS011;5197;48.152;8.590;2023-05-07T05:34:35;4.67;;;3.83;;
10303;SDS011;5197;48.152;8.590;2023-05-07T05:37:02;3.47;;;3.17;;
10303;SDS011;5197;48.152;8.590;2023-05-07T05:39:29;5.47;;;3.93;;
10303;SDS011;5197;48.152;8.590;2023-05-07T05:41:56;3.53;;;3.23;;
10303;SDS011;5197;48.152;8.590;2023-05-07T05:44:23;3.50;;;3.20;;
10303;SDS011;5197;48.152;8.590;2023-05-07T05:46:50;4.23;;;3.20;;
10303;SDS011;5197;48.152;8.590;2023-05-07T05:49:17;6.13;;;3.17;;
10303;SDS011;5197;48.152;8.590;2023-05-07T05:51:44;3.00;;;2.80;;
10303;SDS011;5197;48.152;8.590;2023-05-07T05:54:12;3.20;;;2.63;;
10303;SDS011;5197;48.152;8.590;2023-05-07T05:56:39;2.77;;;2.57;;
10303;SDS011;5197;48.152;8.590;2023-05-07T05:59:06;2.80;;;2.60;;
10303;SDS011;5197;48.152;8.590;2023-05-07T06:01:33;3.30;;;2.33;;
10303;SDS011;5197;48.152;8.590;2023-05-07T06:04:00;2.83;;;2.63;;
10303;SDS011;5197;48.152;8.590;2023-05-07T06:06:27;2.90;;;2.70;;
10303;SDS011;5197;48.152;8.590;2023-05-07T06:08:54;2.87;;;2.60;;
10303;SDS011;5197;48.152;8.590;2023-05-07T06:11:21;3.13;;;2.67;;
10303;SDS011;5197;48.152;8.590;2023-05-07T06:13:49;2.77;;;2.47;;
10303;SDS011;5197;48.152;8.590;2023-05-07T06:16:16;2.90;;;2.60;;
10303;SDS011;5197;48.152;8.590;2023-05-07T06:18:44;3.33;;;2.53;;
10303;SDS011;5197;48.152;8.590;2023-05-07T06:21:13;5.47;;;2.80;;
10303;SDS011;5197;48.152;8.590;2023-05-07T06:23:40;4.70;;;2.20;;
10303;SDS011;5197;48.152;8.590;2023-05-07T06:26:07;3.53;;;2.30;;
10303;SDS011;5197;48.152;8.590;2023-05-07T06:28:34;4.77;;;2.33;;
10303;SDS011;5197;48.152;8.590;2023-05-07T06:31:17;4.90;;;2.30;;
10303;SDS011;5197;48.152;8.590;2023-05-07T06:33:49;2.10;;;2.00;;
10303;SDS011;5197;48.152;8.590;2023-05-07T06:36:16;4.50;;;2.60;;
10303;SDS011;5197;48.152;8.590;2023-05-07T06:38:43;2.83;;;2.60;;
10303;SDS011;5197;48.152;8.590;2023-05-07T06:41:11;5.63;;;2.47;;
10303;SDS011;5197;48.152;8.590;2023-05-07T06:43:38;2.57;;;2.37;;
10303;SDS011;5197;48.152;8.590;2023-05-07T06:46:06;2.90;;;2.50;;
10303;SDS011;5197;48.152;8.590;2023-05-07T06:48:33;3.90;;;2.50;;
10303;SDS011;5197;48.152;8.590;2023-05-07T06:51:00;3.80;;;2.87;;
10303;SDS011;5197;48.152;8.590;2023-05-07T06:53:27;4.17;;;2.57;;
10303;SDS011;5197;48.152;8.590;2023-05-07T06:55:55;4.27;;;2.67;;
10303;SDS011;5197;48.152;8.590;2023-05-07T06:58:23;2.93;;;2.70;;
10303;SDS011;5197;48.152;8.590;2023-05-07T07:00:50;4.97;;;2.90;;
10303;SDS011;5197;48.152;8.590;2023-05-07T07:03:17;2.70;;;2.50;;
10303;SDS011;5197;48.152;8.590;2023-05-07T07:05:44;4.23;;;2.70;;
10303;SDS011;5197;48.152;8.590;2023-05-07T07:08:11;2.97;;;2.67;;
10303;SDS011;5197;48.152;8.590;2023-05-07T07:10:38;3.20;;;2.55;;
10303;SDS011;5197;48.152;8.590;2023-05-07T07:13:06;5.03;;;2.70;;
10303;SDS011;5197;48.152;8.590;2023-05-07T07:15:33;4.05;;;2.90;;
10303;SDS011;5197;48.152;8.590;2023-05-07T07:18:00;4.50;;;2.47;;
10303;SDS011;5197;48.152;8.590;2023-05-07T07:20:27;3.00;;;2.55;;
10303;SDS011;5197;48.152;8.590;2023-05-07T07:22:54;2.83;;;2.63;;
10303;SDS011;5197;48.152;8.590;2023-05-07T07:25:21;2.80;;;2.53;;
10303;SDS011;5197;48.152;8.590;2023-05-07T07:27:49;3.53;;;2.58;;
10303;SDS011;5197;48.152;8.590;2023-05-07T07:30:17;2.80;;;2.47;;
10303;SDS011;5197;48.152;8.590;2023-05-07T07:32:44;2.60;;;2.47;;
10303;SDS011;5197;48.152;8.590;2023-05-07T07:35:11;2.60;;;2.40;;
10303;SDS011;5197;48.152;8.590;2023-05-07T07:37:38;3.05;;;2.45;;
10303;SDS011;5197;48.152;8.590;2023-05-07T07:40:05;3.50;;;2.30;;
10303;SDS011;5197;48.152;8.590;2023-05-07T07:42:33;2.25;;;2.10;;
10303;SDS011;5197;48.152;8.590;2023-05-07T07:45:00;2.83;;;2.38;;
10303;SDS011;5197;48.152;8.590;2023-05-07T07:47:28;2.33;;;2.22;;
10303;SDS011;5197;48.152;8.590;2023-05-07T07:49:55;3.53;;;2.22;;
10303;SDS011;5197;48.152;8.590;2023-05-07T07:52:22;5.82;;;2.30;;
10303;SDS011;5197;48.152;8.590;2023-05-07T07:54:50;2.30;;;2.13;;
10303;SDS011;5197;48.152;8.590;2023-05-07T07:57:17;4.45;;;2.05;;
10303;SDS011;5197;48.152;8.590;2023-05-07T07:59:44;3.03;;;2.13;;
10303;SDS011;5197;48.152;8.590;2023-05-07T08:02:11;2.70;;;2.03;;
10303;SDS011;5197;48.152;8.590;2023-05-07T08:04:39;3.45;;;1.80;;
10303;SDS011;5197;48.152;8.590;2023-05-07T08:07:06;1.95;;;1.73;;
10303;SDS011;5197;48.152;8.590;2023-05-07T08:09:33;1.88;;;1.70;;
10303;SDS011;5197;48.152;8.590;2023-05-07T08:12:00;2.00;;;1.80;;
10303;SDS011;5197;48.152;8.590;2023-05-07T08:14:27;2.35;;;2.00;;
10303;SDS011;5197;48.152;8.590;2023-05-07T08:16:56;1.90;;;1.80;;
10303;SDS011;5197;48.152;8.590;2023-05-07T08:19:23;2.65;;;1.70;;
10303;SDS011;5197;48.152;8.590;2023-05-07T08:21:50;1.80;;;1.70;;
10303;SDS011;5197;48.152;8.590;2023-05-07T08:24:17;2.85;;;1.80;;
10303;SDS011;5197;48.152;8.590;2023-05-07T08:26:45;5.00;;;1.98;;
10303;SDS011;5197;48.152;8.590;2023-05-07T08:29:13;2.28;;;1.98;;
10303;SDS011;5197;48.152;8.590;2023-05-07T08:31:41;2.00;;;1.73;;
10303;SDS011;5197;48.152;8.590;2023-05-07T08:34:08;3.50;;;2.17;;
10303;SDS011;5197;48.152;8.590;2023-05-07T08:36:35;1.83;;;1.73;;
10303;SDS011;5197;48.152;8.590;2023-05-07T08:39:03;2.35;;;1.98;;
10303;SDS011;5197;48.152;8.590;2023-05-07T08:41:30;2.03;;;1.90;;
10303;SDS011;5197;48.152;8.590;2023-05-07T08:43:58;2.38;;;2.15;;
10303;SDS011;5197;48.152;8.590;2023-05-07T08:46:27;1.98;;;1.88;;
10303;SDS011;5197;48.152;8.590;2023-05-07T08:48:57;2.13;;;1.92;;
10303;SDS011;5197;48.152;8.590;2023-05-07T08:51:25;3.13;;;2.10;;
10303;SDS011;5197;48.152;8.590;2023-05-07T08:53:53;3.58;;;2.50;;
10303;SDS011;5197;48.152;8.590;2023-05-07T08:56:22;2.25;;;2.00;;
10303;SDS011;5197;48.152;8.590;2023-05-07T08:58:48;1.83;;;1.73;;
10303;SDS011;5197;48.152;8.590;2023-05-07T09:01:16;2.00;;;1.80;;
10303;SDS011;5197;48.152;8.590;2023-05-07T09:03:44;3.88;;;1.95;;
10303;SDS011;5197;48.152;8.590;2023-05-07T09:06:12;2.67;;;2.05;;
10303;SDS011;5197;48.152;8.590;2023-05-07T09:08:39;1.75;;;1.42;;
10303;SDS011;5197;48.152;8.590;2023-05-07T09:11:06;2.63;;;1.88;;
10303;SDS011;5197;48.152;8.590;2023-05-07T09:13:34;3.28;;;1.95;;
10303;SDS011;5197;48.152;8.590;2023-05-07T09:16:11;2.22;;;1.60;;
10303;SDS011;5197;48.152;8.590;2023-05-07T09:18:43;1.80;;;1.70;;
10303;SDS011;5197;48.152;8.590;2023-05-07T09:21:11;2.38;;;1.60;;
10303;SDS011;5197;48.152;8.590;2023-05-07T09:23:42;1.55;;;1.40;;
10303;SDS011;5197;48.152;8.590;2023-05-07T09:26:09;1.38;;;1.30;;
10303;SDS011;5197;48.152;8.590;2023-05-07T09:28:41;1.73;;;1.60;;
10303;SDS011;5197;48.152;8.590;2023-05-07T09:31:09;1.40;;;1.33;;
10303;SDS011;5197;48.152;8.590;2023-05-07T09:33:37;1.63;;;1.52;;
10303;SDS011;5197;48.152;8.590;2023-05-07T09:36:06;2.17;;;1.80;;
10303;SDS011;5197;48.152;8.590;2023-05-07T09:38:35;1.52;;;1.42;;
10303;SDS011;5197;48.152;8.590;2023-05-07T09:43:35;1.38;;;1.27;;
10303;SDS011;5197;48.152;8.590;2023-05-07T09:46:06;1.40;;;1.27;;
10303;SDS011;5197;48.152;8.590;2023-05-07T09:48:44;1.48;;;1.38;;
10303;SDS011;5197;48.152;8.590;2023-05-07T09:51:14;3.60;;;1.60;;
10303;SDS011;5197;48.152;8.590;2023-05-07T09:53:52;1.50;;;1.40;;
10303;SDS011;5197;48.152;8.590;2023-05-07T09:56:20;1.98;;;1.40;;
10303;SDS011;5197;48.152;8.590;2023-05-07T09:58:50;2.15;;;1.38;;
10303;SDS011;5197;48.152;8.590;2023-05-07T10:01:20;4.95;;;1.25;;
10303;SDS011;5197;48.152;8.590;2023-05-07T10:03:50;1.17;;;1.17;;
10303;SDS011;5197;48.152;8.590;2023-05-07T10:06:19;1.45;;;1.42;;
10303;SDS011;5197;48.152;8.590;2023-05-07T10:08:47;1.80;;;1.70;;
10303;SDS011;5197;48.152;8.590;2023-05-07T10:11:15;1.65;;;1.55;;
10303;SDS011;5197;48.152;8.590;2023-05-07T10:13:43;3.70;;;1.50;;
10303;SDS011;5197;48.152;8.590;2023-05-07T10:16:10;1.88;;;1.77;;
10303;SDS011;5197;48.152;8.590;2023-05-07T10:18:38;2.53;;;1.60;;
10303;SDS011;5197;48.152;8.590;2023-05-07T10:21:08;1.85;;;1.60;;
10303;SDS011;5197;48.152;8.590;2023-05-07T10:23:41;1.83;;;1.63;;
10303;SDS011;5197;48.152;8.590;2023-05-07T10:26:12;2.17;;;1.85;;
10303;SDS011;5197;48.152;8.590;2023-05-07T10:28:41;1.50;;;1.40;;
10303;SDS011;5197;48.152;8.590;2023-05-07T10:34:08;3.20;;;1.67;;
10303;SDS011;5197;48.152;8.590;2023-05-07T10:36:39;1.90;;;1.45;;
10303;SDS011;5197;48.152;8.590;2023-05-07T10:39:08;1.65;;;1.40;;
10303;SDS011;5197;48.152;8.590;2023-05-07T10:41:36;3.38;;;1.50;;
10303;SDS011;5197;48.152;8.590;2023-05-07T10:44:03;1.65;;;1.48;;
10303;SDS011;5197;48.152;8.590;2023-05-07T10:46:31;3.00;;;1.70;;
10303;SDS011;5197;48.152;8.590;2023-05-07T10:51:33;3.90;;;1.70;;
10303;SDS011;5197;48.152;8.590;2023-05-07T10:56:38;1.70;;;1.60;;
10303;SDS011;5197;48.152;8.590;2023-05-07T11:01:57;1.70;;;1.60;;
10303;SDS011;5197;48.152;8.590;2023-05-07T11:04:34;2.10;;;1.80;;
10303;SDS011;5197;48.152;8.590;2023-05-07T11:17:52;2.20;;;2.10;;
10303;SDS011;5197;48.152;8.590;2023-05-07T11:20:20;1.90;;;1.80;;
10303;SDS011;5197;48.152;8.590;2023-05-07T11:26:02;2.20;;;2.00;;
10303;SDS011;5197;48.152;8.590;2023-05-07T11:28:31;2.63;;;1.77;;
10303;SDS011;5197;48.152;8.590;2023-05-07T11:31:03;2.70;;;2.03;;
10303;SDS011;5197;48.152;8.590;2023-05-07T11:33:31;2.30;;;2.10;;
10303;SDS011;5197;48.152;8.590;2023-05-07T11:35:59;2.35;;;1.83;;
10303;SDS011;5197;48.152;8.590;2023-05-07T11:38:27;2.92;;;2.17;;
10303;SDS011;5197;48.152;8.590;2023-05-07T11:40:56;2.90;;;2.20;;
10303;SDS011;5197;48.152;8.590;2023-05-07T11:43:27;3.53;;;2.30;;
10303;SDS011;5197;48.152;8.590;2023-05-07T11:45:54;4.22;;;2.20;;
10303;SDS011;5197;48.152;8.590;2023-05-07T11:48:21;2.60;;;2.40;;
10303;SDS011;5197;48.152;8.590;2023-05-07T11:53:26;4.32;;;2.50;;
10303;SDS011;5197;48.152;8.590;2023-05-07T11:55:57;2.75;;;1.88;;
10303;SDS011;5197;48.152;8.590;2023-05-07T11:58:24;2.30;;;2.15;;
10303;SDS011;5197;48.152;8.590;2023-05-07T12:00:52;5.20;;;1.95;;
10303;SDS011;5197;48.152;8.590;2023-05-07T12:03:20;2.17;;;2.00;;
10303;SDS011;5197;48.152;8.590;2023-05-07T12:05:48;2.92;;;1.98;;
10303;SDS011;5197;48.152;8.590;2023-05-07T12:08:20;2.10;;;1.75;;
10303;SDS011;5197;48.152;8.590;2023-05-07T12:10:48;1.83;;;1.73;;
10303;SDS011;5197;48.152;8.590;2023-05-07T12:13:23;2.73;;;1.50;;
10303;SDS011;5197;48.152;8.590;2023-05-07T12:15:53;2.40;;;1.63;;
10303;SDS011;5197;48.152;8.590;2023-05-07T12:18:21;1.53;;;1.33;;
10303;SDS011;5197;48.152;8.590;2023-05-07T12:20:49;3.33;;;1.23;;
10303;SDS011;5197;48.152;8.590;2023-05-07T12:23:17;1.90;;;1.37;;
10303;SDS011;5197;48.152;8.590;2023-05-07T12:25:44;1.20;;;1.20;;
10303;SDS011;5197;48.152;8.590;2023-05-07T12:28:14;1.27;;;1.20;;
10303;SDS011;5197;48.152;8.590;2023-05-07T12:30:43;1.30;;;1.20;;
10303;SDS011;5197;48.152;8.590;2023-05-07T12:33:12;3.47;;;1.40;;
10303;SDS011;5197;48.152;8.590;2023-05-07T12:35:49;2.63;;;1.40;;
10303;SDS011;5197;48.152;8.590;2023-05-07T12:38:17;1.20;;;1.20;;
10303;SDS011;5197;48.152;8.590;2023-05-07T12:40:48;1.40;;;1.30;;
10303;SDS011;5197;48.152;8.590;2023-05-07T12:43:21;1.30;;;1.20;;
10303;SDS011;5197;48.152;8.590;2023-05-07T12:45:53;1.57;;;1.33;;
10303;SDS011;5197;48.152;8.590;2023-05-07T12:48:23;1.27;;;1.23;;
10303;SDS011;5197;48.152;8.590;2023-05-07T12:50:50;1.57;;;1.40;;
10303;SDS011;5197;48.152;8.590;2023-05-07T12:53:20;1.27;;;1.17;;
10303;SDS011;5197;48.152;8.590;2023-05-07T12:55:49;1.53;;;1.30;;
10303;SDS011;5197;48.152;8.590;2023-05-07T12:58:24;4.90;;;1.67;;
10303;SDS011;5197;48.152;8.590;2023-05-07T13:00:56;2.23;;;1.67;;
10303;SDS011;5197;48.152;8.590;2023-05-07T13:03:36;2.47;;;2.27;;
10303;SDS011;5197;48.152;8.590;2023-05-07T13:06:04;3.80;;;2.17;;
10303;SDS011;5197;48.152;8.590;2023-05-07T13:08:37;2.40;;;2.20;;
10303;SDS011;5197;48.152;8.590;2023-05-07T13:11:15;4.10;;;2.30;;
10303;SDS011;5197;48.152;8.590;2023-05-07T13:13:42;2.87;;;2.30;;
10303;SDS011;5197;48.152;8.590;2023-05-07T13:16:09;2.30;;;2.10;;
10303;SDS011;5197;48.152;8.590;2023-05-07T13:18:38;2.47;;;2.20;;
10303;SDS011;5197;48.152;8.590;2023-05-07T13:21:06;2.90;;;2.10;;
10303;SDS011;5197;48.152;8.590;2023-05-07T13:23:33;2.33;;;2.13;;
10303;SDS011;5197;48.152;8.590;2023-05-07T13:26:00;4.00;;;2.67;;
10303;SDS011;5197;48.152;8.590;2023-05-07T13:28:40;2.60;;;2.40;;
10303;SDS011;5197;48.152;8.590;2023-05-07T13:31:07;3.13;;;2.50;;
10303;SDS011;5197;48.152;8.590;2023-05-07T13:33:34;3.20;;;2.30;;
10303;SDS011;5197;48.152;8.590;2023-05-07T13:36:02;3.40;;;2.40;;
10303;SDS011;5197;48.152;8.590;2023-05-07T13:38:31;2.50;;;2.30;;
10303;SDS011;5197;48.152;8.590;2023-05-07T13:40:58;1.90;;;1.80;;
10303;SDS011;5197;48.152;8.590;2023-05-07T13:43:25;2.27;;;1.90;;
10303;SDS011;5197;48.152;8.590;2023-05-07T13:45:52;3.93;;;2.20;;
10303;SDS011;5197;48.152;8.590;2023-05-07T13:48:19;2.57;;;1.83;;
10303;SDS011;5197;48.152;8.590;2023-05-07T13:50:46;2.60;;;1.70;;
10303;SDS011;5197;48.152;8.590;2023-05-07T13:53:13;1.63;;;1.53;;
10303;SDS011;5197;48.152;8.590;2023-05-07T13:55:44;2.33;;;1.50;;
10303;SDS011;5197;48.152;8.590;2023-05-07T13:58:11;1.77;;;1.67;;
10303;SDS011;5197;48.152;8.590;2023-05-07T14:00:38;1.67;;;1.57;;
10303;SDS011;5197;48.152;8.590;2023-05-07T14:03:05;2.43;;;1.30;;
10303;SDS011;5197;48.152;8.590;2023-05-07T14:05:32;1.40;;;1.33;;
10303;SDS011;5197;48.152;8.590;2023-05-07T14:07:59;1.93;;;1.67;;
10303;SDS011;5197;48.152;8.590;2023-05-07T14:10:26;1.20;;;1.10;;
10303;SDS011;5197;48.152;8.590;2023-05-07T14:12:53;1.20;;;1.10;;
10303;SDS011;5197;48.152;8.590;2023-05-07T14:15:21;1.83;;;1.50;;
10303;SDS011;5197;48.152;8.590;2023-05-07T14:17:48;1.57;;;1.47;;
10303;SDS011;5197;48.152;8.590;2023-05-07T14:20:15;1.20;;;1.10;;
10303;SDS011;5197;48.152;8.590;2023-05-07T14:22:42;1.63;;;1.53;;
10303;SDS011;5197;48.152;8.590;2023-05-07T14:25:09;2.17;;;1.60;;
10303;SDS011;5197;48.152;8.590;2023-05-07T14:27:36;3.33;;;1.60;;
10303;SDS011;5197;48.152;8.590;2023-05-07T14:30:04;1.53;;;1.43;;
10303;SDS011;5197;48.152;8.590;2023-05-07T14:32:32;1.87;;;1.30;;
10303;SDS011;5197;48.152;8.590;2023-05-07T14:34:59;1.10;;;1.10;;
10303;SDS011;5197;48.152;8.590;2023-05-07T14:37:26;1.50;;;1.40;;
10303;SDS011;5197;48.152;8.590;2023-05-07T14:39:54;1.70;;;1.10;;
10303;SDS011;5197;48.152;8.590;2023-05-07T14:42:21;1.03;;;1.03;;
10303;SDS011;5197;48.152;8.590;2023-05-07T14:44:48;2.53;;;1.20;;
10303;SDS011;5197;48.152;8.590;2023-05-07T14:47:15;1.03;;;1.03;;
10303;SDS011;5197;48.152;8.590;2023-05-07T14:49:45;0.93;;;0.93;;
10303;SDS011;5197;48.152;8.590;2023-05-07T14:52:12;1.10;;;0.97;;
10303;SDS011;5197;48.152;8.590;2023-05-07T14:54:39;1.80;;;1.10;;
10303;SDS011;5197;48.152;8.590;2023-05-07T14:57:08;1.20;;;1.10;;
10303;SDS011;5197;48.152;8.590;2023-05-07T14:59:37;1.00;;;1.00;;
10303;SDS011;5197;48.152;8.590;2023-05-07T15:02:05;1.20;;;0.90;;
10303;SDS011;5197;48.152;8.590;2023-05-07T15:04:34;1.60;;;0.90;;
10303;SDS011;5197;48.152;8.590;2023-05-07T15:07:01;1.10;;;1.10;;
10303;SDS011;5197;48.152;8.590;2023-05-07T15:09:29;1.43;;;0.83;;
10303;SDS011;5197;48.152;8.590;2023-05-07T15:11:56;1.03;;;1.03;;
10303;SDS011;5197;48.152;8.590;2023-05-07T15:14:23;2.30;;;1.40;;
10303;SDS011;5197;48.152;8.590;2023-05-07T15:16:50;2.10;;;1.40;;
10303;SDS011;5197;48.152;8.590;2023-05-07T15:19:17;1.00;;;1.00;;
10303;SDS011;5197;48.152;8.590;2023-05-07T15:21:44;1.47;;;1.37;;
10303;SDS011;5197;48.152;8.590;2023-05-07T15:24:11;1.73;;;1.43;;
10303;SDS011;5197;48.152;8.590;2023-05-07T15:26:38;1.30;;;1.20;;
10303;SDS011;5197;48.152;8.590;2023-05-07T15:29:05;1.27;;;1.27;;
10303;SDS011;5197;48.152;8.590;2023-05-07T15:31:36;1.30;;;1.30;;
10303;SDS011;5197;48.152;8.590;2023-05-07T15:34:06;1.10;;;1.10;;